createdAt,value
2023-01-03T00:02:15.398Z,73.73
2023-01-03T00:04:49.714Z,73.69
2023-01-03T00:07:34.319Z,73.72
2023-01-03T00:10:08.304Z,74.08
2023-01-03T00:12:39.590Z,74.46
2023-01-03T00:15:14.418Z,74.15
2023-01-03T00:17:45.412Z,74.59
2023-01-03T00:20:16.148Z,74.40
2023-01-03T00:22:46.862Z,73.57
2023-01-03T00:25:17.695Z,73.33
2023-01-03T00:27:48.456Z,73.41
2023-01-03T00:30:19.478Z,72.59
2023-01-03T00:32:50.190Z,72.93
2023-01-03T00:35:21.265Z,72.40
2023-01-03T00:37:51.831Z,72.41
2023-01-03T00:40:22.429Z,72.25
2023-01-03T00:43:10.895Z,71.80
2023-01-03T00:45:41.583Z,71.87
2023-01-03T00:48:12.399Z,72.03
2023-01-03T00:50:42.934Z,71.68
2023-01-03T00:53:13.591Z,71.81
2023-01-03T00:55:44.229Z,71.84
2023-01-03T00:58:14.981Z,71.81
2023-01-03T01:00:45.708Z,72.14
2023-01-03T01:03:18.206Z,72.02
2023-01-03T01:05:47.363Z,72.13
2023-01-03T01:08:18.101Z,72.11
2023-01-03T01:11:02.008Z,72.13
2023-01-03T01:13:33.690Z,71.94
2023-01-03T01:16:10.420Z,71.96
2023-01-03T01:18:42.226Z,72.18
2023-01-03T01:21:14.718Z,72.40
2023-01-03T01:23:46.022Z,72.20
2023-01-03T01:26:18.247Z,72.21
2023-01-03T01:28:49.183Z,72.70
2023-01-03T01:31:22.595Z,71.80
2023-01-03T01:33:54.117Z,71.71
2023-01-03T01:36:28.995Z,71.42
2023-01-03T01:39:02.069Z,71.83
2023-01-03T01:41:52.564Z,71.61
2023-01-03T01:44:48.948Z,71.94
2023-01-03T01:47:27.553Z,71.24
2023-01-03T01:49:59.884Z,71.41
2023-01-03T01:52:32.525Z,71.12
2023-01-03T01:55:06.625Z,70.82
2023-01-03T01:57:39.005Z,71.36
2023-01-03T02:00:12.398Z,71.70
2023-01-03T02:02:50.548Z,71.23
2023-01-03T02:05:23.412Z,70.28
2023-01-03T02:07:55.118Z,70.20
2023-01-03T02:10:37.951Z,69.87
2023-01-03T02:13:16.562Z,69.99
2023-01-03T02:16:12.143Z,70.25
2023-01-03T02:18:50.702Z,70.32
2023-01-03T02:21:59.976Z,70.02
2023-01-03T02:24:50.115Z,69.80
2023-01-03T02:27:44.235Z,69.77
2023-01-03T02:30:22.611Z,69.40
2023-01-03T02:32:57.481Z,69.96
2023-01-03T02:35:37.746Z,69.81
2023-01-03T02:38:14.752Z,70.00
2023-01-03T02:40:49.101Z,69.89
2023-01-03T02:43:25.605Z,69.31
2023-01-03T02:46:09.716Z,69.44
2023-01-03T02:48:51.924Z,69.36
2023-01-03T02:51:28.425Z,69.06
2023-01-03T02:54:01.860Z,69.22
2023-01-03T02:56:36.963Z,69.16
2023-01-03T02:59:13.072Z,69.71
2023-01-03T03:01:45.748Z,69.41
2023-01-03T03:04:17.008Z,69.73
2023-01-03T03:06:55.460Z,69.54
2023-01-03T03:09:26.518Z,69.15
2023-01-03T03:12:16.401Z,69.20
2023-01-03T03:14:51.435Z,69.59
2023-01-03T03:17:25.282Z,68.92
2023-01-03T03:20:16.637Z,68.90
2023-01-03T03:23:09.572Z,68.51
2023-01-03T03:25:45.567Z,68.23
2023-01-03T03:28:38.724Z,69.04
2023-01-03T03:31:15.949Z,69.07
2023-01-03T03:33:51.007Z,68.73
2023-01-03T03:36:29.249Z,68.85
2023-01-03T03:39:00.941Z,68.59
2023-01-03T03:41:58.574Z,67.53
2023-01-03T03:44:51.887Z,67.48
2023-01-03T03:47:31.487Z,67.37
2023-01-03T03:50:07.078Z,67.26
2023-01-03T03:52:38.971Z,66.99
2023-01-03T03:55:15.038Z,66.79
2023-01-03T03:57:52.284Z,66.90
2023-01-03T04:00:28.481Z,66.89
2023-01-03T04:03:01.522Z,66.52
2023-01-03T04:05:37.395Z,66.98
2023-01-03T04:08:09.060Z,67.46
2023-01-03T04:10:40.271Z,67.27
2023-01-03T04:13:11.022Z,66.78
2023-01-03T04:15:41.742Z,66.58
2023-01-03T04:18:12.405Z,66.44
2023-01-03T04:20:43.066Z,66.46
2023-01-03T04:23:13.747Z,65.98
2023-01-03T04:25:44.368Z,66.44
2023-01-03T04:28:15.087Z,66.44
2023-01-03T04:30:46.465Z,66.65
2023-01-03T04:33:17.449Z,66.04
2023-01-03T04:35:48.121Z,66.16
2023-01-03T04:38:18.729Z,65.64
2023-01-03T04:40:49.431Z,65.51
2023-01-03T04:43:37.890Z,65.09
2023-01-03T04:46:08.698Z,66.04
2023-01-03T04:48:39.476Z,65.35
2023-01-03T04:51:10.237Z,65.72
2023-01-03T04:53:40.924Z,65.85
2023-01-03T04:56:12.056Z,66.12
2023-01-03T04:58:42.861Z,65.81
2023-01-03T05:01:13.607Z,65.96
2023-01-03T05:03:44.518Z,66.07
2023-01-03T05:06:15.413Z,65.69
2023-01-03T05:08:48.535Z,65.70
2023-01-03T05:11:19.728Z,65.44
2023-01-03T05:13:50.357Z,65.82
2023-01-03T05:16:21.144Z,65.99
2023-01-03T05:18:53.492Z,66.02
2023-01-03T05:21:42.599Z,66.64
2023-01-03T05:24:43.473Z,66.62
2023-01-03T05:27:14.463Z,66.40
2023-01-03T05:29:47.564Z,66.17
2023-01-03T05:32:20.897Z,66.02
2023-01-03T05:34:51.973Z,66.10
2023-01-03T05:37:25.038Z,65.80
2023-01-03T05:39:55.733Z,65.88
2023-01-03T05:42:26.452Z,65.69
2023-01-03T05:44:57.201Z,64.43
2023-01-03T05:47:27.856Z,64.42
2023-01-03T05:49:58.447Z,64.99
2023-01-03T05:52:29.158Z,65.28
2023-01-03T05:54:59.860Z,65.23
2023-01-03T05:57:35.208Z,64.46
2023-01-03T06:00:07.482Z,65.08
2023-01-03T06:02:38.116Z,64.89
2023-01-03T06:05:10.664Z,64.81
2023-01-03T06:07:41.253Z,64.11
2023-01-03T06:10:13.105Z,63.90
2023-01-03T06:12:43.724Z,64.14
2023-01-03T06:15:14.535Z,64.51
2023-01-03T06:17:58.281Z,64.94
2023-01-03T06:20:30.168Z,64.24
2023-01-03T06:23:01.065Z,64.80
2023-01-03T06:25:31.788Z,65.40
2023-01-03T06:28:02.420Z,67.03
2023-01-03T06:30:33.199Z,67.72
2023-01-03T06:33:03.848Z,67.94
2023-01-03T06:35:34.435Z,66.04
2023-01-03T06:38:05.144Z,67.63
2023-01-03T06:40:40.688Z,66.87
2023-01-03T06:43:15.156Z,67.73
2023-01-03T06:46:04.949Z,65.98
2023-01-03T06:48:53.280Z,65.66
2023-01-03T06:51:42.729Z,67.84
2023-01-03T06:54:21.929Z,68.31
2023-01-03T06:56:53.623Z,69.04
2023-01-03T06:59:24.432Z,68.38
2023-01-03T07:01:56.408Z,66.44
2023-01-03T07:04:28.388Z,64.85
2023-01-03T07:06:59.129Z,64.20
2023-01-03T07:09:29.801Z,64.18
2023-01-03T07:12:20.434Z,64.17
2023-01-03T07:14:51.255Z,64.32
2023-01-03T07:17:21.949Z,64.89
2023-01-03T07:19:52.596Z,64.78
2023-01-03T07:22:23.456Z,64.75
2023-01-03T07:24:54.281Z,64.63
2023-01-03T07:27:25.471Z,64.77
2023-01-03T07:29:56.189Z,64.91
2023-01-03T07:32:27.298Z,65.05
2023-01-03T07:34:57.950Z,65.33
2023-01-03T07:37:28.602Z,65.15
2023-01-03T07:39:59.372Z,65.31
2023-01-03T07:42:47.450Z,65.30
2023-01-03T07:45:18.556Z,65.23
2023-01-03T07:47:49.516Z,65.16
2023-01-03T07:50:20.175Z,65.25
2023-01-03T07:52:50.896Z,65.40
2023-01-03T07:55:21.498Z,66.35
2023-01-03T07:57:52.171Z,66.45
2023-01-03T08:00:22.997Z,66.46
2023-01-03T08:02:56.728Z,66.12
2023-01-03T08:05:28.284Z,65.92
2023-01-03T08:07:58.948Z,65.35
2023-01-03T08:10:47.114Z,65.14
2023-01-03T08:13:20.941Z,64.80
2023-01-03T08:15:53.403Z,64.46
2023-01-03T08:18:26.419Z,64.58
2023-01-03T08:20:57.457Z,64.45
2023-01-03T08:23:28.968Z,64.58
2023-01-03T08:26:05.330Z,64.51
2023-01-03T08:28:36.654Z,64.63
2023-01-03T08:31:12.512Z,64.76
2023-01-03T08:33:48.441Z,64.80
2023-01-03T08:36:19.867Z,64.56
2023-01-03T08:38:55.418Z,64.46
2023-01-03T08:41:29.788Z,64.11
2023-01-03T08:44:03.436Z,63.70
2023-01-03T08:46:36.259Z,62.82
2023-01-03T08:49:07.041Z,62.49
2023-01-03T08:51:37.655Z,61.98
2023-01-03T08:54:08.440Z,61.42
2023-01-03T08:56:39.605Z,61.14
2023-01-03T08:59:10.393Z,60.89
2023-01-03T09:01:41.623Z,60.81
2023-01-03T09:04:12.524Z,60.14
2023-01-03T09:06:43.298Z,60.01
2023-01-03T09:09:13.949Z,60.08
2023-01-03T09:11:44.662Z,60.09
2023-01-03T09:14:15.595Z,59.73
2023-01-03T09:16:49.321Z,59.46
2023-01-03T09:19:20.683Z,59.36
2023-01-03T09:21:51.440Z,59.81
2023-01-03T09:24:22.059Z,59.37
2023-01-03T09:26:54.930Z,59.46
2023-01-03T09:29:26.283Z,59.13
2023-01-03T09:31:57.005Z,59.07
2023-01-03T09:34:27.707Z,59.44
2023-01-03T09:36:58.365Z,59.81
2023-01-03T09:39:28.935Z,60.14
2023-01-03T09:42:19.791Z,59.64
2023-01-03T09:44:50.619Z,59.17
2023-01-03T09:47:24.058Z,59.12
2023-01-03T09:50:27.690Z,59.30
2023-01-03T09:53:07.087Z,59.06
2023-01-03T09:56:07.435Z,58.16
2023-01-03T09:58:56.109Z,57.76
2023-01-03T10:01:57.900Z,57.97
2023-01-03T10:05:05.392Z,58.44
2023-01-03T10:08:00.749Z,58.68
2023-01-03T10:10:42.189Z,58.68
2023-01-03T10:13:27.401Z,58.38
2023-01-03T10:16:09.547Z,58.35
2023-01-03T10:19:07.301Z,58.37
2023-01-03T10:21:48.570Z,58.02
2023-01-03T10:24:26.223Z,57.76
2023-01-03T10:27:01.715Z,57.76
2023-01-03T10:29:32.425Z,57.53
2023-01-03T10:32:31.877Z,56.85
2023-01-03T10:35:19.024Z,56.45
2023-01-03T10:37:52.542Z,56.73
2023-01-03T10:40:32.230Z,56.44
2023-01-03T10:43:11.194Z,56.51
2023-01-03T10:45:55.932Z,56.54
2023-01-03T10:48:52.643Z,56.75
2023-01-03T10:51:35.730Z,56.62
2023-01-03T10:54:24.772Z,56.39
2023-01-03T10:56:55.363Z,55.95
2023-01-03T10:59:27.947Z,56.14
2023-01-03T11:02:15.433Z,56.46
2023-01-03T11:04:46.607Z,56.99
2023-01-03T11:07:17.874Z,56.70
2023-01-03T11:09:53.403Z,56.41
2023-01-03T11:12:29.949Z,55.61
2023-01-03T11:15:01.295Z,54.06
2023-01-03T11:17:32.043Z,54.20
2023-01-03T11:20:02.700Z,54.44
2023-01-03T11:22:42.954Z,54.50
2023-01-03T11:25:28.705Z,54.31
2023-01-03T11:28:16.864Z,54.87
2023-01-03T11:30:55.154Z,55.20
2023-01-03T11:33:44.676Z,55.53
2023-01-03T11:36:27.819Z,55.44
2023-01-03T11:39:16.239Z,55.64
2023-01-03T11:42:08.530Z,55.41
2023-01-03T11:45:18.942Z,55.76
2023-01-03T11:47:59.406Z,56.15
2023-01-03T11:50:42.466Z,56.28
2023-01-03T11:53:24.905Z,56.53
2023-01-03T11:56:17.816Z,56.43
2023-01-03T11:59:37.326Z,56.56
2023-01-03T12:02:43.212Z,56.92
2023-01-03T12:05:35.821Z,56.98
2023-01-03T12:08:19.511Z,56.77
2023-01-03T12:10:56.167Z,56.57
2023-01-03T12:13:34.555Z,55.86
2023-01-03T12:16:13.989Z,55.38
2023-01-03T12:18:53.990Z,55.07
2023-01-03T12:21:33.413Z,55.17
2023-01-03T12:24:13.654Z,54.81
2023-01-03T12:26:49.575Z,54.66
2023-01-03T12:29:26.308Z,54.95
2023-01-03T12:32:03.600Z,54.78
2023-01-03T12:34:43.408Z,55.02
2023-01-03T12:37:18.777Z,55.49
2023-01-03T12:39:56.673Z,55.62
2023-01-03T12:42:39.465Z,55.74
2023-01-03T12:45:31.338Z,55.59
2023-01-03T12:48:16.618Z,55.55
2023-01-03T12:50:49.232Z,55.59
2023-01-03T12:53:22.030Z,55.63
2023-01-03T12:56:08.474Z,55.46
2023-01-03T12:58:54.732Z,55.91
2023-01-03T13:01:35.773Z,56.02
2023-01-03T13:04:22.571Z,55.87
2023-01-03T13:06:58.575Z,55.87
2023-01-03T13:09:36.749Z,55.89
2023-01-03T13:12:14.888Z,56.24
2023-01-03T13:14:56.830Z,56.47
2023-01-03T13:17:30.056Z,57.10
2023-01-03T13:20:18.862Z,57.14
2023-01-03T13:22:53.829Z,57.21
2023-01-03T13:25:33.832Z,57.42
2023-01-03T13:28:09.277Z,57.43
2023-01-03T13:30:40.490Z,57.60
2023-01-03T13:33:22.355Z,57.71
2023-01-03T13:36:04.892Z,57.99
2023-01-03T13:38:36.715Z,58.05
2023-01-03T13:41:31.196Z,58.23
2023-01-03T13:44:16.842Z,58.15
2023-01-03T13:46:49.219Z,58.11
2023-01-03T13:49:23.883Z,58.04
2023-01-03T13:51:57.063Z,58.11
2023-01-03T13:55:06.592Z,58.10
2023-01-03T13:57:54.302Z,58.06
2023-01-03T14:00:26.806Z,58.27
2023-01-03T14:03:24.620Z,58.48
2023-01-03T14:06:10.343Z,58.59
2023-01-03T14:09:27.483Z,58.78
2023-01-03T14:12:26.674Z,58.77
2023-01-03T14:14:58.929Z,58.94
2023-01-03T14:17:32.200Z,59.09
2023-01-03T14:20:08.886Z,58.95
2023-01-03T14:22:44.226Z,59.23
2023-01-03T14:25:34.584Z,59.32
2023-01-03T14:28:17.205Z,59.26
2023-01-03T14:30:51.873Z,59.07
2023-01-03T14:33:24.485Z,59.37
2023-01-03T14:36:04.462Z,59.33
2023-01-03T14:38:36.497Z,59.38
2023-01-03T14:41:07.394Z,59.64
2023-01-03T14:43:38.020Z,59.64
2023-01-03T14:46:12.597Z,59.53
2023-01-03T14:48:48.441Z,59.75
2023-01-03T14:51:20.165Z,59.81
2023-01-03T14:53:52.157Z,59.86
2023-01-03T14:56:26.817Z,59.93
2023-01-03T14:58:58.173Z,59.91
2023-01-03T15:01:30.076Z,60.02
2023-01-03T15:04:02.318Z,60.10
2023-01-03T15:06:34.205Z,59.86
2023-01-03T15:09:23.157Z,60.25
2023-01-03T15:11:59.087Z,60.43
2023-01-03T15:14:32.554Z,60.44
2023-01-03T15:17:14.775Z,60.17
2023-01-03T15:19:53.660Z,60.45
2023-01-03T15:22:27.354Z,60.58
2023-01-03T15:25:06.817Z,60.46
2023-01-03T15:27:47.747Z,60.54
2023-01-03T15:30:32.361Z,60.72
2023-01-03T15:33:20.921Z,60.81
2023-01-03T15:35:55.545Z,60.80
2023-01-03T15:38:34.781Z,60.84
2023-01-03T15:41:15.982Z,60.84
2023-01-03T15:43:46.677Z,60.81
2023-01-03T15:46:20.146Z,61.01
2023-01-03T15:48:57.230Z,61.34
2023-01-03T15:51:27.881Z,61.45
2023-01-03T15:53:58.595Z,61.40
2023-01-03T15:56:32.988Z,61.54
2023-01-03T15:59:34.686Z,61.26
2023-01-03T16:02:16.904Z,61.41
2023-01-03T16:04:48.802Z,61.38
2023-01-03T16:07:19.477Z,61.39
2023-01-03T16:09:50.147Z,61.48
2023-01-03T16:12:23.380Z,61.40
2023-01-03T16:14:55.312Z,61.44
2023-01-03T16:17:29.237Z,61.59
2023-01-03T16:20:01.620Z,61.81
2023-01-03T16:22:34.987Z,61.91
2023-01-03T16:25:07.694Z,62.09
2023-01-03T16:27:38.552Z,62.26
2023-01-03T16:30:12.725Z,62.17
2023-01-03T16:32:46.477Z,62.14
2023-01-03T16:35:20.577Z,62.48
2023-01-03T16:37:51.383Z,62.52
2023-01-03T16:40:23.498Z,62.62
2023-01-03T16:42:54.325Z,63.18
2023-01-03T16:45:25.077Z,63.32
2023-01-03T16:47:56.049Z,63.34
2023-01-03T16:50:27.395Z,63.44
2023-01-03T16:52:59.213Z,63.48
2023-01-03T16:55:33.560Z,63.74
2023-01-03T16:58:04.233Z,63.64
2023-01-03T17:00:37.024Z,63.85
2023-01-03T17:03:06.338Z,63.86
2023-01-03T17:05:39.052Z,63.80
2023-01-03T17:08:16.953Z,63.86
2023-01-03T17:10:49.589Z,63.93
2023-01-03T17:13:29.247Z,64.26
2023-01-03T17:16:01.511Z,64.47
2023-01-03T17:18:37.150Z,64.50
2023-01-03T17:21:24.207Z,64.60
2023-01-03T17:23:58.863Z,64.69
2023-01-03T17:26:31.985Z,64.78
2023-01-03T17:29:05.620Z,64.77
2023-01-03T17:31:36.447Z,65.01
2023-01-03T17:34:23.472Z,65.00
2023-01-03T17:36:55.007Z,65.10
2023-01-03T17:39:27.320Z,64.98
2023-01-03T17:42:17.316Z,64.96
2023-01-03T17:45:03.400Z,64.71
2023-01-03T17:47:57.175Z,64.65
2023-01-03T17:50:28.848Z,64.69
2023-01-03T17:53:01.407Z,64.46
2023-01-03T17:55:32.807Z,64.56
2023-01-03T17:58:04.937Z,64.52
2023-01-03T18:00:35.853Z,64.53
2023-01-03T18:03:07.159Z,64.65
2023-01-03T18:05:38.227Z,64.97
2023-01-03T18:08:15.023Z,64.89
2023-01-03T18:10:47.475Z,64.89
2023-01-03T18:13:27.508Z,64.87
2023-01-03T18:15:58.439Z,65.04
2023-01-03T18:18:30.159Z,65.08
2023-01-03T18:21:01.169Z,64.65
2023-01-03T18:23:34.128Z,64.70
2023-01-03T18:26:07.355Z,64.82
2023-01-03T18:28:38.218Z,64.59
2023-01-03T18:31:10.540Z,64.20
2023-01-03T18:33:41.228Z,64.17
2023-01-03T18:36:22.695Z,64.11
2023-01-03T18:38:57.122Z,64.16
2023-01-03T18:41:30.484Z,63.70
2023-01-03T18:44:01.698Z,63.70
2023-01-03T18:46:32.675Z,64.01
2023-01-03T18:49:03.602Z,63.97
2023-01-03T18:51:34.472Z,63.89
2023-01-03T18:54:05.333Z,63.78
2023-01-03T18:56:38.557Z,63.77
2023-01-03T18:59:14.364Z,63.67
2023-01-03T19:01:45.072Z,63.21
2023-01-03T19:04:16.038Z,63.20
2023-01-03T19:06:49.474Z,63.11
2023-01-03T19:09:25.084Z,63.22
2023-01-03T19:11:56.368Z,63.23
2023-01-03T19:14:27.104Z,63.00
2023-01-03T19:16:57.758Z,62.75
2023-01-03T19:19:28.491Z,62.54
2023-01-03T19:21:59.281Z,62.49
2023-01-03T19:24:38.873Z,62.37
2023-01-03T19:27:14.386Z,62.45
2023-01-03T19:29:45.872Z,62.26
2023-01-03T19:32:20.117Z,62.29
2023-01-03T19:34:51.054Z,62.14
2023-01-03T19:37:22.429Z,62.09
2023-01-03T19:39:53.120Z,62.10
2023-01-03T19:42:41.640Z,62.04
2023-01-03T19:45:18.513Z,62.17
2023-01-03T19:47:49.399Z,61.82
2023-01-03T19:50:25.677Z,62.09
2023-01-03T19:52:57.881Z,61.79
2023-01-03T19:55:31.869Z,65.49
2023-01-03T19:58:04.730Z,67.62
2023-01-03T20:00:37.070Z,66.42
2023-01-03T20:03:26.722Z,63.25
2023-01-03T20:05:58.042Z,62.15
2023-01-03T20:08:29.190Z,61.68
2023-01-03T20:11:00.378Z,61.37
2023-01-03T20:13:32.832Z,61.39
2023-01-03T20:16:03.799Z,61.44
2023-01-03T20:18:37.023Z,61.56
2023-01-03T20:21:21.451Z,61.73
2023-01-03T20:23:55.594Z,61.56
2023-01-03T20:26:29.487Z,61.36
2023-01-03T20:29:01.164Z,61.56
2023-01-03T20:31:32.472Z,61.38
2023-01-03T20:34:06.440Z,61.23
2023-01-03T20:36:42.875Z,61.24
2023-01-03T20:39:26.091Z,61.22
2023-01-03T20:42:03.257Z,61.32
2023-01-03T20:44:34.787Z,61.30
2023-01-03T20:47:06.874Z,61.23
2023-01-03T20:49:40.797Z,61.43
2023-01-03T20:52:16.880Z,61.39
2023-01-03T20:54:47.514Z,61.34
2023-01-03T20:57:21.252Z,61.22
2023-01-03T20:59:52.151Z,61.29
2023-01-03T21:02:23.082Z,61.05
2023-01-03T21:04:53.903Z,61.20
2023-01-03T21:07:50.967Z,61.08
2023-01-03T21:10:26.363Z,61.22
2023-01-03T21:12:57.032Z,61.00
2023-01-03T21:15:27.844Z,61.05
2023-01-03T21:17:58.699Z,61.29
2023-01-03T21:20:31.031Z,61.52
2023-01-03T21:23:02.162Z,61.26
2023-01-03T21:25:34.857Z,61.22
2023-01-03T21:28:06.066Z,61.48
2023-01-03T21:30:36.878Z,61.49
2023-01-03T21:33:07.850Z,61.31
2023-01-03T21:35:41.006Z,61.46
2023-01-03T21:38:12.555Z,61.54
2023-01-03T21:40:43.232Z,61.41
2023-01-03T21:43:13.923Z,61.38
2023-01-03T21:45:47.702Z,61.41
2023-01-03T21:48:19.623Z,61.53
2023-01-03T21:50:50.924Z,61.64
2023-01-03T21:53:23.373Z,61.57
2023-01-03T21:55:54.135Z,61.39
2023-01-03T21:58:24.882Z,61.30
2023-01-03T22:00:55.706Z,61.24
2023-01-03T22:03:49.260Z,61.25
2023-01-03T22:06:20.094Z,61.31
2023-01-03T22:08:50.945Z,61.27
2023-01-03T22:11:22.053Z,61.26
2023-01-03T22:13:55.586Z,60.84
2023-01-03T22:16:26.958Z,61.02
2023-01-03T22:18:57.590Z,61.15
2023-01-03T22:21:28.462Z,61.30
2023-01-03T22:23:59.300Z,61.30
2023-01-03T22:26:34.288Z,61.46
2023-01-03T22:29:06.237Z,61.48
2023-01-03T22:31:36.941Z,61.40
2023-01-03T22:34:07.793Z,61.47
2023-01-03T22:36:38.510Z,61.60
2023-01-03T22:39:09.181Z,61.73
2023-01-03T22:41:39.860Z,61.65
2023-01-03T22:44:11.357Z,61.82
2023-01-03T22:46:42.032Z,61.96
2023-01-03T22:49:13.124Z,61.99
2023-01-03T22:51:46.668Z,61.95
2023-01-03T22:54:17.427Z,61.85
2023-01-03T22:56:48.231Z,61.94
2023-01-03T22:59:18.940Z,61.96
2023-01-03T23:01:50.312Z,61.82
2023-01-03T23:04:22.919Z,61.88
2023-01-03T23:06:54.603Z,61.93
2023-01-03T23:09:25.597Z,61.85
2023-01-03T23:12:13.901Z,61.87
2023-01-03T23:14:45.054Z,61.72
2023-01-03T23:17:33.563Z,61.65
2023-01-03T23:20:05.074Z,61.70
2023-01-03T23:22:35.703Z,61.65
2023-01-03T23:25:07.863Z,61.75
2023-01-03T23:27:38.630Z,61.79
2023-01-03T23:30:11.646Z,61.97
2023-01-03T23:32:42.520Z,61.89
2023-01-03T23:35:13.556Z,61.97
2023-01-03T23:37:44.256Z,62.09
2023-01-03T23:40:15.729Z,62.07
2023-01-03T23:42:46.532Z,62.17
2023-01-03T23:45:17.286Z,62.24
2023-01-03T23:47:47.986Z,62.09
2023-01-03T23:50:18.747Z,62.11
2023-01-03T23:52:49.494Z,62.24
2023-01-03T23:55:20.537Z,62.29
2023-01-03T23:57:51.215Z,62.22
